createdAt,value
2017-05-23T00:00:03.926Z,21.90
2017-05-23T00:02:33.550Z,21.80
2017-05-23T00:05:03.568Z,21.60
2017-05-23T00:07:33.804Z,21.80
2017-05-23T00:10:03.847Z,22.60
2017-05-23T00:12:33.991Z,21.20
2017-05-23T00:15:04.460Z,21.50
2017-05-23T00:17:34.754Z,22.00
2017-05-23T00:20:04.593Z,21.90
2017-05-23T00:22:34.936Z,23.00
2017-05-23T00:25:05.181Z,22.70
2017-05-23T00:27:35.325Z,21.20
2017-05-23T00:30:05.553Z,21.90
2017-05-23T00:32:35.780Z,21.50
2017-05-23T00:35:05.919Z,21.20
2017-05-23T00:37:35.995Z,21.00
2017-05-23T00:40:06.106Z,21.70
2017-05-23T00:42:36.415Z,21.40
2017-05-23T00:45:06.337Z,21.10
2017-05-23T00:47:36.414Z,20.60
2017-05-23T00:50:06.769Z,22.30
2017-05-23T00:52:36.885Z,20.10
2017-05-23T00:55:07.317Z,21.80
2017-05-23T00:57:37.788Z,21.30
2017-05-23T01:00:07.944Z,21.30
2017-05-23T01:02:38.186Z,21.70
2017-05-23T01:05:08.352Z,21.60
2017-05-23T01:07:38.578Z,21.70
2017-05-23T01:10:08.684Z,23.10
2017-05-23T01:12:38.828Z,21.70
2017-05-23T01:15:08.413Z,21.70
2017-05-23T01:17:38.356Z,22.70
2017-05-23T01:20:07.892Z,22.70
2017-05-23T01:22:38.997Z,22.70
2017-05-23T01:25:09.016Z,22.20
2017-05-23T01:27:38.132Z,22.10
2017-05-23T01:30:08.514Z,22.70
2017-05-23T01:32:37.997Z,22.70
2017-05-23T01:35:09.228Z,22.80
2017-05-23T01:37:39.183Z,23.20
2017-05-23T01:40:09.187Z,22.50
2017-05-23T01:42:39.293Z,23.00
2017-05-23T01:45:09.650Z,23.00
2017-05-23T01:47:39.752Z,23.30
2017-05-23T01:50:10.162Z,23.60
2017-05-23T01:52:40.249Z,22.90
2017-05-23T01:55:09.608Z,22.90
2017-05-23T01:57:40.167Z,23.50
2017-05-23T02:00:10.479Z,22.80
2017-05-23T02:02:40.720Z,23.90
2017-05-23T02:05:11.063Z,24.40
2017-05-23T02:07:41.487Z,24.30
2017-05-23T02:10:11.502Z,24.90
2017-05-23T02:12:40.806Z,24.90
2017-05-23T02:15:11.343Z,23.70
2017-05-23T02:17:41.584Z,23.10
2017-05-23T02:20:11.817Z,23.00
2017-05-23T02:22:43.228Z,22.60
2017-05-23T02:25:13.644Z,23.70
2017-05-23T02:27:43.657Z,22.50
2017-05-23T02:30:13.179Z,22.50
2017-05-23T02:32:43.134Z,23.90
2017-05-23T02:35:13.405Z,23.70
2017-05-23T02:37:42.820Z,23.60
2017-05-23T02:40:13.118Z,23.90
2017-05-23T02:42:43.505Z,24.10
2017-05-23T02:45:13.919Z,23.90
2017-05-23T02:47:43.928Z,24.90
2017-05-23T02:50:14.355Z,25.40
2017-05-23T02:52:44.173Z,24.60
2017-05-23T02:55:14.456Z,24.70
2017-05-23T02:57:44.816Z,24.10
2017-05-23T03:00:15.304Z,24.60
2017-05-23T03:02:44.756Z,24.60
2017-05-23T03:05:15.029Z,24.30
2017-05-23T03:07:45.202Z,25.90
2017-05-23T03:10:14.899Z,25.40
2017-05-23T03:12:45.500Z,25.20
2017-05-23T03:15:16.285Z,25.50
2017-05-23T03:17:46.619Z,25.60
2017-05-23T03:20:16.268Z,25.50
2017-05-23T03:22:48.119Z,25.90
2017-05-23T03:25:18.593Z,25.80
2017-05-23T03:27:48.872Z,25.70
2017-05-23T03:30:19.103Z,26.30
2017-05-23T03:32:49.335Z,26.60
2017-05-23T03:35:19.318Z,27.20
2017-05-23T03:37:48.617Z,27.20
2017-05-23T03:40:18.863Z,28.20
2017-05-23T03:42:48.519Z,28.20
2017-05-23T03:45:18.717Z,28.40
2017-05-23T03:47:49.166Z,28.60
2017-05-23T03:50:19.242Z,28.70
2017-05-23T03:52:49.600Z,29.40
2017-05-23T03:55:19.899Z,29.50
2017-05-23T03:57:49.357Z,29.50
2017-05-23T04:00:19.440Z,29.40
2017-05-23T04:02:49.149Z,29.90
2017-05-23T04:05:19.420Z,30.00
2017-05-23T04:07:49.740Z,31.10
2017-05-23T04:10:18.464Z,31.20
2017-05-23T04:12:47.285Z,31.00
2017-05-23T04:15:16.856Z,31.20
2017-05-23T04:17:45.544Z,31.00
2017-05-23T04:20:15.117Z,32.10
2017-05-23T04:22:45.400Z,31.50
2017-05-23T04:25:17.453Z,31.80
2017-05-23T04:27:48.038Z,32.10
2017-05-23T04:30:18.595Z,30.70
2017-05-23T04:32:48.715Z,30.90
2017-05-23T04:35:18.900Z,31.10
2017-05-23T04:37:49.456Z,31.70
2017-05-23T04:40:19.473Z,31.00
2017-05-23T04:42:49.818Z,31.60
2017-05-23T04:45:19.305Z,31.60
2017-05-23T04:47:49.570Z,31.20
2017-05-23T04:50:19.911Z,31.10
2017-05-23T04:52:50.016Z,31.80
2017-05-23T04:55:20.389Z,31.40
2017-05-23T04:57:50.093Z,31.20
2017-05-23T05:00:20.278Z,31.00
2017-05-23T05:02:49.738Z,31.50
2017-05-23T05:05:18.892Z,31.40
2017-05-23T05:07:47.800Z,31.80
2017-05-23T05:10:17.214Z,32.00
2017-05-23T05:12:45.901Z,31.90
2017-05-23T05:15:16.204Z,32.00
2017-05-23T05:17:46.556Z,32.40
2017-05-23T05:20:17.096Z,32.20
2017-05-23T05:22:47.687Z,33.40
2017-05-23T05:25:18.435Z,31.80
2017-05-23T05:27:48.696Z,31.90
2017-05-23T05:30:19.130Z,32.50
2017-05-23T05:32:48.375Z,32.50
2017-05-23T05:35:18.559Z,32.00
2017-05-23T05:37:49.030Z,32.00
2017-05-23T05:40:19.289Z,31.70
2017-05-23T05:42:49.405Z,32.50
2017-05-23T05:45:19.604Z,32.10
2017-05-23T05:47:49.995Z,32.30
2017-05-23T05:50:20.297Z,31.70
2017-05-23T05:52:49.645Z,31.70
2017-05-23T05:55:19.947Z,33.50
2017-05-23T05:57:49.828Z,33.40
2017-05-23T06:00:20.287Z,33.00
2017-05-23T06:02:50.660Z,33.30
2017-05-23T06:05:20.794Z,32.60
2017-05-23T06:07:51.083Z,32.30
2017-05-23T06:10:21.327Z,32.60
2017-05-23T06:12:57.320Z,32.10
2017-05-23T06:15:27.564Z,32.00
2017-05-23T06:17:57.800Z,31.70
2017-05-23T06:20:27.957Z,32.00
2017-05-23T06:22:58.053Z,32.60
2017-05-23T06:25:29.092Z,32.90
2017-05-23T06:27:59.248Z,32.50
2017-05-23T06:30:29.633Z,32.00
2017-05-23T06:32:59.952Z,32.30
2017-05-23T06:35:30.310Z,32.00
2017-05-23T06:38:00.591Z,34.50
2017-05-23T06:40:30.514Z,34.30
2017-05-23T06:43:00.697Z,35.10
2017-05-23T06:45:30.462Z,35.20
2017-05-23T06:48:00.511Z,37.80
2017-05-23T06:50:30.528Z,37.00
2017-05-23T06:53:00.041Z,36.90
2017-05-23T06:55:30.244Z,37.60
2017-05-23T06:58:00.378Z,38.80
2017-05-23T07:00:30.555Z,38.00
2017-05-23T07:03:00.452Z,39.70
2017-05-23T07:05:30.521Z,42.60
2017-05-23T07:08:00.738Z,41.40
2017-05-23T07:10:30.895Z,40.60
2017-05-23T07:13:01.182Z,40.80
2017-05-23T07:15:31.342Z,39.00
2017-05-23T07:18:01.426Z,39.40
2017-05-23T07:20:30.900Z,39.40
2017-05-23T07:23:01.185Z,39.60
2017-05-23T07:25:32.087Z,39.10
2017-05-23T07:28:02.197Z,40.40
2017-05-23T07:30:32.220Z,40.90
2017-05-23T07:33:02.505Z,41.60
2017-05-23T07:35:32.581Z,40.60
2017-05-23T07:38:02.804Z,40.20
2017-05-23T07:40:32.806Z,40.50
2017-05-23T07:43:02.944Z,40.90
2017-05-23T07:45:32.859Z,41.50
2017-05-23T07:48:02.969Z,41.80
2017-05-23T07:50:33.308Z,41.20
2017-05-23T07:53:03.613Z,41.30
2017-05-23T07:55:32.948Z,41.30
2017-05-23T07:58:02.989Z,45.60
2017-05-23T08:00:33.272Z,46.80
2017-05-23T08:03:03.380Z,49.00
2017-05-23T08:05:33.849Z,48.20
2017-05-23T08:08:04.035Z,53.10
2017-05-23T08:10:33.562Z,53.00
2017-05-23T08:13:03.415Z,51.50
2017-05-23T08:15:33.646Z,52.70
2017-05-23T08:18:04.085Z,51.20
2017-05-23T08:20:34.548Z,50.60
2017-05-23T08:23:04.103Z,50.60
2017-05-23T08:25:34.900Z,51.10
2017-05-23T08:28:04.940Z,50.10
2017-05-23T08:30:35.197Z,53.50
2017-05-23T08:33:05.287Z,56.20
2017-05-23T08:35:35.367Z,55.50
2017-05-23T08:38:05.626Z,56.20
2017-05-23T08:40:36.561Z,54.50
2017-05-23T08:43:06.042Z,52.60
2017-05-23T08:45:35.993Z,54.60
2017-05-23T08:48:05.853Z,56.00
2017-05-23T08:50:35.899Z,54.90
2017-05-23T08:53:05.592Z,55.30
2017-05-23T08:55:35.098Z,55.30
2017-05-23T08:58:04.949Z,54.60
2017-05-23T09:00:35.248Z,57.30
2017-05-23T09:03:05.237Z,54.40
2017-05-23T09:05:34.674Z,54.40
2017-05-23T09:08:04.967Z,55.80
2017-05-23T09:10:35.134Z,53.70
2017-05-23T09:13:05.415Z,55.60
2017-05-23T09:15:35.412Z,58.20
2017-05-23T09:18:05.063Z,58.60
2017-05-23T09:20:35.470Z,56.00
2017-05-23T09:23:05.442Z,60.80
2017-05-23T09:25:42.105Z,58.40
2017-05-23T09:28:12.213Z,60.10
2017-05-23T09:30:42.609Z,59.30
2017-05-23T09:33:12.974Z,60.30
2017-05-23T09:35:42.899Z,59.60
2017-05-23T09:38:13.172Z,63.10
2017-05-23T09:40:43.311Z,60.60
2017-05-23T09:43:13.627Z,61.60
2017-05-23T09:45:43.607Z,62.20
2017-05-23T09:48:13.483Z,61.60
2017-05-23T09:50:43.725Z,62.20
2017-05-23T09:53:13.782Z,62.20
2017-05-23T09:55:44.116Z,63.60
2017-05-23T09:58:14.385Z,64.80
2017-05-23T10:00:44.650Z,65.90
2017-05-23T10:03:14.333Z,66.40
2017-05-23T10:05:44.716Z,66.50
2017-05-23T10:08:14.691Z,67.00
2017-05-23T10:10:44.327Z,66.90
2017-05-23T10:13:14.807Z,69.30
2017-05-23T10:15:46.238Z,69.00
2017-05-23T10:18:16.558Z,69.70
2017-05-23T10:20:46.577Z,69.90
2017-05-23T10:23:16.690Z,69.10
2017-05-23T10:25:47.032Z,68.00
2017-05-23T10:28:17.334Z,68.20
2017-05-23T10:30:47.158Z,69.90
2017-05-23T10:33:17.453Z,70.60
2017-05-23T10:35:47.635Z,70.00
2017-05-23T10:38:17.834Z,69.30
2017-05-23T10:40:47.973Z,70.60
2017-05-23T10:43:18.460Z,70.30
2017-05-23T10:45:48.531Z,69.90
2017-05-23T10:48:18.819Z,71.10
2017-05-23T10:50:48.978Z,70.50
2017-05-23T10:53:19.186Z,73.10
2017-05-23T10:55:49.405Z,72.80
2017-05-23T10:58:19.728Z,72.80
2017-05-23T11:00:49.421Z,72.20
2017-05-23T11:03:19.751Z,72.20
2017-05-23T11:05:50.075Z,71.10
2017-05-23T11:08:20.128Z,72.50
2017-05-23T11:10:50.264Z,72.20
2017-05-23T11:13:19.524Z,72.10
2017-05-23T11:15:49.708Z,72.20
2017-05-23T11:18:19.930Z,72.50
2017-05-23T11:20:49.980Z,73.20
2017-05-23T11:23:20.423Z,74.00
2017-05-23T11:25:51.288Z,73.90
2017-05-23T11:28:28.315Z,73.90
2017-05-23T11:30:58.628Z,75.00
2017-05-23T11:33:28.968Z,76.40
2017-05-23T11:35:59.203Z,76.80
2017-05-23T11:38:29.482Z,77.00
2017-05-23T11:40:59.474Z,75.20
2017-05-23T11:43:29.850Z,77.10
2017-05-23T11:46:00.151Z,77.40
2017-05-23T11:48:30.241Z,78.00
2017-05-23T11:51:00.229Z,78.80
2017-05-23T11:53:30.378Z,80.00
2017-05-23T11:56:00.637Z,80.40
2017-05-23T11:58:30.588Z,79.40
2017-05-23T12:01:00.716Z,80.50
2017-05-23T12:03:30.899Z,82.00
2017-05-23T12:06:01.187Z,83.10
2017-05-23T12:08:31.228Z,81.60
2017-05-23T12:11:01.401Z,82.10
2017-05-23T12:13:31.514Z,81.80
2017-05-23T12:16:01.731Z,82.70
2017-05-23T12:18:32.059Z,81.60
2017-05-23T12:21:02.165Z,82.40
2017-05-23T12:23:32.384Z,83.00
2017-05-23T12:26:04.126Z,81.80
2017-05-23T12:28:34.073Z,84.40
2017-05-23T12:31:04.295Z,83.10
2017-05-23T12:33:34.560Z,84.90
2017-05-23T12:36:04.775Z,82.60
2017-05-23T12:38:34.811Z,82.80
2017-05-23T12:41:04.319Z,82.80
2017-05-23T12:43:34.632Z,83.10
2017-05-23T12:46:04.135Z,83.10
2017-05-23T12:48:34.025Z,82.20
2017-05-23T12:51:04.078Z,82.30
2017-05-23T12:53:34.135Z,82.90
2017-05-23T12:56:04.265Z,82.50
2017-05-23T12:58:34.392Z,82.40
2017-05-23T13:01:04.391Z,81.90
2017-05-23T13:03:34.673Z,82.30
2017-05-23T13:06:05.087Z,81.90
2017-05-23T13:08:35.683Z,82.10
2017-05-23T13:11:05.965Z,81.30
2017-05-23T13:13:35.911Z,81.10
2017-05-23T13:16:06.043Z,82.10
2017-05-23T13:18:36.072Z,81.90
2017-05-23T13:21:13.404Z,81.10
2017-05-23T13:23:43.547Z,81.60
2017-05-23T13:26:14.565Z,79.00
2017-05-23T13:28:44.621Z,79.40
2017-05-23T13:31:14.781Z,77.60
2017-05-23T13:33:44.999Z,76.40
2017-05-23T13:36:15.165Z,73.60
2017-05-23T13:38:45.097Z,71.40
2017-05-23T13:41:15.398Z,71.10
2017-05-23T13:43:45.573Z,69.30
2017-05-23T13:46:15.691Z,70.00
2017-05-23T13:48:45.092Z,70.00
2017-05-23T13:51:16.405Z,68.40
2017-05-23T13:53:46.642Z,65.60
2017-05-23T13:56:16.865Z,67.70
2017-05-23T13:58:46.438Z,68.30
2017-05-23T14:01:16.385Z,62.60
2017-05-23T14:03:46.560Z,57.90
2017-05-23T14:06:16.636Z,56.30
2017-05-23T14:08:46.814Z,54.80
2017-05-23T14:11:17.167Z,53.80
2017-05-23T14:13:47.404Z,53.60
2017-05-23T14:16:17.710Z,52.10
2017-05-23T14:18:47.851Z,52.40
2017-05-23T14:21:18.122Z,52.30
2017-05-23T14:23:48.348Z,49.70
2017-05-23T14:26:19.555Z,52.30
2017-05-23T14:28:49.127Z,52.30
2017-05-23T14:31:18.940Z,52.70
2017-05-23T14:33:49.642Z,51.20
2017-05-23T14:36:19.791Z,53.70
2017-05-23T14:38:49.823Z,50.70
2017-05-23T14:41:20.088Z,50.40
2017-05-23T14:43:50.455Z,50.00
2017-05-23T14:46:22.946Z,51.20
2017-05-23T14:48:53.064Z,50.50
2017-05-23T14:51:23.190Z,50.40
2017-05-23T14:53:53.470Z,47.00
2017-05-23T14:56:23.449Z,46.90
2017-05-23T14:58:52.784Z,47.00
2017-05-23T15:01:22.842Z,48.40
2017-05-23T15:03:53.110Z,44.90
2017-05-23T15:06:23.141Z,40.50
2017-05-23T15:08:52.664Z,40.10
2017-05-23T15:11:22.774Z,36.70
2017-05-23T15:13:52.846Z,36.90
2017-05-23T15:16:22.858Z,31.80
2017-05-23T15:18:52.994Z,30.00
2017-05-23T15:21:22.431Z,30.00
2017-05-23T15:23:52.463Z,25.90
2017-05-23T15:26:22.234Z,25.80
2017-05-23T15:28:52.333Z,21.20
2017-05-23T15:31:22.550Z,20.00
2017-05-23T15:33:52.678Z,17.60
2017-05-23T15:36:22.955Z,18.40
2017-05-23T15:38:53.038Z,18.30
2017-05-23T15:41:23.411Z,14.80
2017-05-23T15:43:53.484Z,18.00
2017-05-23T15:46:23.789Z,14.00
2017-05-23T15:48:54.029Z,13.30
2017-05-23T15:51:24.260Z,13.50
2017-05-23T15:53:54.328Z,12.20
2017-05-23T15:56:24.864Z,12.40
2017-05-23T15:58:54.781Z,10.70
2017-05-23T16:01:25.096Z,11.50
2017-05-23T16:03:55.225Z,11.70
2017-05-23T16:06:25.486Z,12.20
2017-05-23T16:08:55.336Z,10.90
2017-05-23T16:11:25.403Z,13.60
2017-05-23T16:13:55.450Z,12.60
2017-05-23T16:16:24.874Z,12.60
2017-05-23T16:18:55.252Z,11.50
2017-05-23T16:21:24.549Z,11.20
2017-05-23T16:23:54.673Z,13.30
2017-05-23T16:26:26.138Z,12.50
2017-05-23T16:28:56.071Z,12.70
2017-05-23T16:31:26.274Z,12.10
2017-05-23T16:33:56.608Z,13.30
2017-05-23T16:36:25.759Z,13.30
2017-05-23T16:38:55.788Z,12.80
2017-05-23T16:41:26.112Z,12.20
2017-05-23T16:43:56.412Z,13.50
2017-05-23T16:46:26.724Z,15.30
2017-05-23T16:48:57.043Z,14.30
2017-05-23T16:51:27.402Z,11.30
2017-05-23T16:53:57.784Z,11.40
2017-05-23T16:56:28.101Z,13.70
2017-05-23T16:58:58.173Z,11.80
2017-05-23T17:01:28.314Z,13.40
2017-05-23T17:03:58.505Z,10.80
2017-05-23T17:06:28.650Z,11.90
2017-05-23T17:08:58.922Z,12.60
2017-05-23T17:11:28.979Z,10.00
2017-05-23T17:13:59.132Z,10.40
2017-05-23T17:16:29.436Z,13.10
2017-05-23T17:18:59.337Z,12.50
2017-05-23T17:21:29.485Z,10.80
2017-05-23T17:23:59.509Z,11.20
2017-05-23T17:26:29.866Z,11.00
2017-05-23T17:28:59.897Z,11.80
2017-05-23T17:31:36.567Z,11.00
2017-05-23T17:34:06.699Z,14.80
2017-05-23T17:36:36.805Z,16.20
2017-05-23T17:39:06.770Z,15.30
2017-05-23T17:41:36.772Z,13.50
2017-05-23T17:44:07.131Z,15.80
2017-05-23T17:46:36.195Z,15.80
2017-05-23T17:49:06.571Z,14.50
2017-05-23T17:51:36.536Z,14.20
2017-05-23T17:54:06.665Z,14.60
2017-05-23T17:56:36.870Z,12.00
2017-05-23T17:59:06.993Z,11.20
2017-05-23T18:01:37.261Z,12.20
2017-05-23T18:04:07.414Z,10.80
2017-05-23T18:06:37.363Z,12.70
2017-05-23T18:09:07.707Z,11.90
2017-05-23T18:11:37.710Z,11.10
2017-05-23T18:14:07.822Z,11.80
2017-05-23T18:16:38.016Z,11.00
2017-05-23T18:19:08.531Z,13.00
2017-05-23T18:21:38.701Z,10.90
2017-05-23T18:24:08.702Z,12.90
2017-05-23T18:26:39.838Z,14.70
2017-05-23T18:29:09.976Z,13.30
2017-05-23T18:31:40.243Z,14.80
2017-05-23T18:34:10.839Z,12.30
2017-05-23T18:36:41.007Z,11.40
2017-05-23T18:39:11.155Z,10.70
2017-05-23T18:41:41.335Z,11.00
2017-05-23T18:44:12.376Z,12.30
2017-05-23T18:46:42.679Z,11.60
2017-05-23T18:49:12.908Z,10.20
2017-05-23T18:51:43.085Z,11.40
2017-05-23T18:54:13.245Z,8.80
2017-05-23T18:56:43.382Z,11.80
2017-05-23T18:59:13.615Z,11.90
2017-05-23T19:01:43.931Z,8.40
2017-05-23T19:04:14.356Z,9.10
2017-05-23T19:06:44.726Z,9.70
2017-05-23T19:09:14.686Z,12.30
2017-05-23T19:11:44.671Z,10.00
2017-05-23T19:14:14.630Z,9.70
2017-05-23T19:16:44.785Z,10.20
2017-05-23T19:19:14.829Z,11.30
2017-05-23T19:21:45.205Z,8.30
2017-05-23T19:24:15.668Z,7.70
2017-05-23T19:26:46.713Z,10.80
2017-05-23T19:29:17.097Z,12.20
2017-05-23T19:31:47.460Z,10.50
2017-05-23T19:34:17.532Z,8.20
2017-05-23T19:36:47.932Z,8.40
2017-05-23T19:39:17.779Z,9.40
2017-05-23T19:41:48.486Z,8.70
2017-05-23T19:44:17.985Z,8.80
2017-05-23T19:46:47.694Z,9.40
2017-05-23T19:49:17.012Z,9.40
2017-05-23T19:51:47.192Z,10.80
2017-05-23T19:54:17.151Z,12.90
2017-05-23T19:56:46.545Z,13.00
2017-05-23T19:59:16.688Z,15.10
2017-05-23T20:01:46.871Z,15.60
2017-05-23T20:04:16.322Z,15.50
2017-05-23T20:06:46.672Z,19.20
2017-05-23T20:09:17.735Z,18.10
2017-05-23T20:11:47.838Z,17.40
2017-05-23T20:14:18.129Z,18.30
2017-05-23T20:16:48.455Z,18.50
2017-05-23T20:19:18.723Z,17.90
2017-05-23T20:21:48.712Z,20.20
2017-05-23T20:24:18.867Z,19.30
2017-05-23T20:26:49.819Z,19.20
2017-05-23T20:29:20.160Z,17.70
2017-05-23T20:31:50.213Z,20.20
2017-05-23T20:34:20.683Z,20.50
2017-05-23T20:36:50.651Z,19.20
2017-05-23T20:39:20.875Z,18.80
2017-05-23T20:41:51.022Z,20.10
2017-05-23T20:44:21.722Z,19.20
2017-05-23T20:46:52.187Z,23.20
2017-05-23T20:49:22.238Z,22.00
2017-05-23T20:51:52.481Z,21.40
2017-05-23T20:54:22.538Z,23.50
2017-05-23T20:56:53.087Z,21.10
2017-05-23T20:59:23.111Z,21.70
2017-05-23T21:01:53.001Z,22.30
2017-05-23T21:04:23.092Z,23.60
2017-05-23T21:06:53.448Z,22.10
2017-05-23T21:09:23.698Z,22.60
2017-05-23T21:11:53.965Z,20.90
2017-05-23T21:14:23.998Z,23.90
2017-05-23T21:16:54.578Z,20.60
2017-05-23T21:19:24.904Z,21.80
2017-05-23T21:21:55.141Z,21.60
2017-05-23T21:24:24.690Z,24.60
2017-05-23T21:26:56.185Z,25.70
2017-05-23T21:29:26.372Z,24.00
2017-05-23T21:31:56.371Z,20.40
2017-05-23T21:34:26.478Z,21.60
2017-05-23T21:36:56.764Z,20.40
2017-05-23T21:39:26.611Z,20.10
2017-05-23T21:41:56.777Z,20.00
2017-05-23T21:44:26.841Z,20.30
2017-05-23T21:46:56.882Z,16.90
2017-05-23T21:49:27.140Z,20.80
2017-05-23T21:51:57.556Z,16.50
2017-05-23T21:54:27.580Z,18.50
2017-05-23T21:56:58.080Z,18.00
2017-05-23T21:59:28.313Z,17.40
2017-05-23T22:01:58.656Z,18.80
2017-05-23T22:04:28.924Z,16.30
2017-05-23T22:06:59.245Z,19.40
2017-05-23T22:09:29.533Z,18.60
2017-05-23T22:11:59.767Z,18.40
2017-05-23T22:14:30.221Z,19.30
2017-05-23T22:17:00.566Z,19.30
2017-05-23T22:19:30.714Z,20.90
2017-05-23T22:22:01.198Z,20.50
2017-05-23T22:24:31.244Z,21.10
2017-05-23T22:27:01.935Z,21.90
2017-05-23T22:29:31.312Z,22.00
2017-05-23T22:32:01.607Z,19.70
2017-05-23T22:34:31.902Z,18.80
2017-05-23T22:37:02.031Z,20.60
2017-05-23T22:39:32.396Z,20.60
2017-05-23T22:42:01.894Z,20.60
2017-05-23T22:44:32.141Z,19.00
2017-05-23T22:47:02.235Z,17.90
2017-05-23T22:49:32.684Z,18.60
2017-05-23T22:52:02.704Z,17.20
2017-05-23T22:54:32.893Z,16.60
2017-05-23T22:57:03.192Z,17.00
2017-05-23T22:59:33.451Z,16.60
2017-05-23T23:02:03.479Z,15.50
2017-05-23T23:04:33.661Z,15.40
2017-05-23T23:07:03.831Z,17.00
2017-05-23T23:09:34.132Z,15.50
2017-05-23T23:12:04.172Z,16.20
2017-05-23T23:14:34.237Z,15.20
2017-05-23T23:17:04.448Z,17.40
2017-05-23T23:19:34.795Z,15.50
2017-05-23T23:22:04.430Z,16.60
2017-05-23T23:24:35.045Z,16.00
2017-05-23T23:27:06.613Z,17.60
2017-05-23T23:29:36.510Z,17.60
2017-05-23T23:32:06.538Z,17.10
2017-05-23T23:34:37.038Z,16.60
2017-05-23T23:37:06.931Z,17.00
2017-05-23T23:39:37.071Z,17.70
2017-05-23T23:42:07.388Z,19.00
2017-05-23T23:44:37.824Z,18.20
2017-05-23T23:47:07.838Z,17.80
2017-05-23T23:49:38.054Z,18.80
2017-05-23T23:52:08.533Z,20.60
2017-05-23T23:54:38.510Z,19.50
2017-05-23T23:57:08.966Z,19.90
2017-05-23T23:59:38.868Z,21.20
